Terminal Aerodrome Forecast
Issued by NWS Northern Indiana

Home | Current Version | Previous Version | Graphics & Text | Print | Product List | Glossary On
Versions: 1 2 3 4 5 6 7 8 9 10 11 12 13 14 15 16 17 18 19 20
956
FTUS43 KIWX 192320
TAFFWA
TAF
KFWA 192320Z 2000/2024 07013G23KT P6SM VCSH OVC015
     FM200400 06012G20KT P6SM OVC015
     FM201500 09010KT P6SM VCSH OVC015
     FM201800 10011KT P6SM SHRA VCTS OVC015CB=

USA.gov is the U.S. government's official web portal to all federal, state and local government web resources and services.